Time;durP1;ratioP1;P1;durP2;ratioP2;P2;SDS_P1;SDS_P2;PMS_P1;PMS_P2;Temp;Humidity;BMP_temperature;BMP_pressure;BME280_temperature;BME280_humidity;BME280_pressure;Samples;Min_cycle;Max_cycle;Signal;HPM_P1;HPM_P2
2022/03/23 00:01:47;;;;;;;15.25;9.75;;;2.80;61.80;;;;;;5050049;28;20122;-67
2022/03/23 00:04:12;;;;;;;6.95;5.35;;;2.50;62.80;;;;;;5049562;28;20044;-67
2022/03/23 00:06:38;;;;;;;8.43;5.15;;;2.50;63.50;;;;;;5056270;28;20043;-67
2022/03/23 00:09:04;;;;;;;10.98;6.82;;;2.30;62.70;;;;;;5055560;28;20049;-67
2022/03/23 00:11:30;;;;;;;11.27;5.95;;;2.30;63.20;;;;;;5048533;28;20115;-67
2022/03/23 00:13:56;;;;;;;10.23;6.50;;;2.20;63.90;;;;;;5055737;28;20033;-67
2022/03/23 00:16:22;;;;;;;13.70;9.43;;;2.20;64.30;;;;;;5053931;28;20043;-67
2022/03/23 00:18:49;;;;;;;15.15;8.98;;;2.30;64.10;;;;;;5054290;28;20036;-67
2022/03/23 00:21:14;;;;;;;13.20;9.68;;;2.40;64.00;;;;;;5054284;28;20060;-67
2022/03/23 00:23:40;;;;;;;15.40;10.85;;;2.60;63.30;;;;;;5054790;28;20998;-67
2022/03/23 00:26:06;;;;;;;16.48;10.45;;;2.60;63.10;;;;;;5050802;28;20045;-67
2022/03/23 00:28:32;;;;;;;16.77;9.45;;;2.70;63.30;;;;;;5050868;28;20052;-67
2022/03/23 00:30:59;;;;;;;14.15;10.10;;;2.70;63.30;;;;;;5054553;28;20063;-68
2022/03/23 00:33:24;;;;;;;17.67;10.15;;;2.60;63.60;;;;;;5058049;28;20035;-67
2022/03/23 00:35:50;;;;;;;17.00;10.25;;;2.70;63.60;;;;;;5053643;28;20036;-67
2022/03/23 00:38:17;;;;;;;14.45;10.02;;;2.70;64.00;;;;;;5051165;28;20057;-67
2022/03/23 00:40:44;;;;;;;13.65;8.80;;;2.80;63.60;;;;;;5050706;28;20575;-67
2022/03/23 00:43:10;;;;;;;9.82;5.88;;;2.90;63.70;;;;;;5050494;28;20029;-67
2022/03/23 00:45:37;;;;;;;8.00;5.45;;;2.80;62.70;;;;;;5051733;28;20056;-67
2022/03/23 00:48:03;;;;;;;12.07;7.03;;;2.50;64.10;;;;;;5051056;28;20520;-67
2022/03/23 00:50:30;;;;;;;14.00;7.63;;;2.30;64.40;;;;;;5054477;28;20048;-67
2022/03/23 00:52:55;;;;;;;12.30;6.45;;;2.30;65.50;;;;;;5048093;28;20040;-67
2022/03/23 00:55:21;;;;;;;20.60;13.02;;;2.30;65.60;;;;;;5048995;28;20143;-68
2022/03/23 00:57:48;;;;;;;14.50;8.73;;;2.30;65.30;;;;;;5054260;28;20058;-67
2022/03/23 01:00:17;;;;;;;12.00;7.47;;;2.30;65.20;;;;;;5058617;28;20044;-67
2022/03/23 01:02:45;;;;;;;10.68;6.82;;;2.20;65.00;;;;;;5060992;28;21097;-68
2022/03/23 01:05:12;;;;;;;11.60;6.35;;;2.20;64.60;;;;;;5057129;28;20064;-67
2022/03/23 01:07:41;;;;;;;10.13;6.05;;;2.00;64.10;;;;;;5057606;28;20404;-67
2022/03/23 01:10:12;;;;;;;12.30;6.57;;;1.80;65.60;;;;;;5055463;28;20452;-67
2022/03/23 01:12:43;;;;;;;11.00;7.00;;;1.80;65.70;;;;;;5062821;28;20048;-67
2022/03/23 01:15:09;;;;;;;13.43;6.65;;;1.80;66.30;;;;;;5059082;28;20032;-67
2022/03/23 01:17:36;;;;;;;16.17;10.32;;;1.70;66.30;;;;;;5057785;28;20673;-67
2022/03/23 01:20:08;;;;;;;15.70;9.13;;;1.80;66.20;;;;;;5056888;28;20079;-67
2022/03/23 01:22:35;;;;;;;14.13;8.55;;;1.90;66.60;;;;;;5060715;28;20055;-67
2022/03/23 01:25:01;;;;;;;16.65;10.68;;;2.00;66.50;;;;;;5062037;28;20094;-67
2022/03/23 01:27:27;;;;;;;12.13;7.93;;;2.00;66.10;;;;;;5056418;28;20041;-67
2022/03/23 01:29:53;;;;;;;16.45;8.93;;;2.10;65.80;;;;;;5058548;28;20522;-67
2022/03/23 01:32:18;;;;;;;11.57;7.05;;;2.00;65.60;;;;;;5059465;28;20060;-67
2022/03/23 01:34:44;;;;;;;13.05;7.30;;;1.70;65.90;;;;;;5058253;28;20409;-67
2022/03/23 01:37:10;;;;;;;13.07;8.30;;;1.50;68.00;;;;;;5056063;28;20029;-67
2022/03/23 01:39:36;;;;;;;12.23;8.73;;;1.50;68.00;;;;;;5056218;28;20127;-67
2022/03/23 01:42:01;;;;;;;13.90;9.25;;;1.60;67.90;;;;;;5058884;28;20114;-67
2022/03/23 01:44:27;;;;;;;14.52;7.68;;;1.70;68.30;;;;;;5062324;28;20507;-68
2022/03/23 01:47:06;;;;;;;12.98;8.27;;;1.80;66.90;;;;;;5059692;28;20473;-67
2022/03/23 01:49:37;;;;;;;10.27;5.82;;;1.80;67.00;;;;;;5056697;28;20059;-67
2022/03/23 01:52:06;;;;;;;8.57;5.70;;;1.70;66.90;;;;;;5057501;28;20139;-67
2022/03/23 01:54:32;;;;;;;8.52;5.78;;;1.60;66.70;;;;;;5060374;28;20389;-67
2022/03/23 01:56:59;;;;;;;10.52;5.72;;;1.50;67.80;;;;;;5057635;28;20043;-67
2022/03/23 01:59:27;;;;;;;8.57;5.38;;;1.40;68.20;;;;;;5064236;28;20036;-67
2022/03/23 02:01:54;;;;;;;9.93;5.95;;;1.40;68.50;;;;;;5058247;28;20037;-67
2022/03/23 02:04:20;;;;;;;11.13;5.38;;;1.30;67.70;;;;;;5042212;28;20521;-67
2022/03/23 02:06:48;;;;;;;8.45;4.80;;;1.20;68.80;;;;;;5065175;28;20040;-67
2022/03/23 02:09:17;;;;;;;10.38;5.38;;;1.20;69.00;;;;;;5058527;28;20150;-67
2022/03/23 02:11:43;;;;;;;9.57;5.75;;;1.30;68.90;;;;;;5045971;28;20553;-67
2022/03/23 02:14:09;;;;;;;12.85;6.90;;;1.30;68.80;;;;;;5054947;28;20024;-67
2022/03/23 02:16:53;;;;;;;13.13;6.47;;;1.30;68.70;;;;;;5057293;28;20060;-67
2022/03/23 02:19:23;;;;;;;11.07;6.05;;;1.30;69.50;;;;;;5056594;28;20025;-67
2022/03/23 02:21:50;;;;;;;10.98;7.68;;;1.30;69.40;;;;;;5042046;28;20132;-67
2022/03/23 02:24:16;;;;;;;10.07;6.60;;;1.40;68.80;;;;;;5053077;28;20044;-67
2022/03/23 02:26:42;;;;;;;12.20;7.63;;;1.50;68.20;;;;;;5058919;28;20055;-67
2022/03/23 02:29:09;;;;;;;8.40;6.50;;;1.60;68.30;;;;;;5056823;28;20028;-67
2022/03/23 02:31:36;;;;;;;10.25;5.32;;;1.60;68.80;;;;;;5053316;28;20528;-67
2022/03/23 02:34:03;;;;;;;9.02;5.07;;;1.40;67.50;;;;;;5059084;28;20035;-67
2022/03/23 02:36:29;;;;;;;8.25;5.03;;;1.10;68.50;;;;;;5052253;28;20057;-67
2022/03/23 02:38:55;;;;;;;9.30;5.10;;;0.90;68.50;;;;;;5051799;28;20025;-67
2022/03/23 02:41:20;;;;;;;9.00;6.00;;;0.70;69.10;;;;;;5056882;28;20035;-67
2022/03/23 02:43:46;;;;;;;8.18;5.78;;;0.80;70.30;;;;;;5057480;28;20052;-67
2022/03/23 02:46:17;;;;;;;8.80;5.20;;;0.80;70.90;;;;;;5035046;28;20041;-67
2022/03/23 02:48:43;;;;;;;10.02;5.70;;;0.80;71.20;;;;;;5055882;28;20029;-67
2022/03/23 02:51:09;;;;;;;9.68;6.18;;;0.90;71.10;;;;;;5055364;28;20045;-67
2022/03/23 03:02:38;;;;;;;6.88;4.80;;;1.20;69.30;;;;;;5044569;28;20048;-67
2022/03/23 03:05:05;;;;;;;9.60;5.93;;;1.00;69.50;;;;;;5044212;28;20024;-67
2022/03/23 03:10:16;;;;;;;10.35;6.13;;;0.90;69.90;;;;;;5050631;28;20384;-67
2022/03/23 03:12:43;;;;;;;11.27;7.13;;;0.90;70.30;;;;;;5047676;28;20894;-68
2022/03/23 03:15:12;;;;;;;12.68;6.57;;;0.90;70.40;;;;;;5047230;28;20036;-67
2022/03/23 03:17:38;;;;;;;9.48;6.25;;;0.90;70.50;;;;;;5050986;28;20053;-67
2022/03/23 03:20:04;;;;;;;9.45;5.90;;;1.00;70.10;;;;;;5048438;28;20037;-67
2022/03/23 03:22:34;;;;;;;7.55;4.93;;;1.00;70.20;;;;;;5041925;28;20040;-67
2022/03/23 03:25:00;;;;;;;12.27;4.95;;;0.90;69.60;;;;;;5049147;28;20040;-67
2022/03/23 03:27:26;;;;;;;7.30;4.78;;;0.80;69.20;;;;;;5050060;28;20068;-67
2022/03/23 03:29:52;;;;;;;8.75;4.53;;;0.70;68.40;;;;;;5049564;28;20128;-68
2022/03/23 03:32:18;;;;;;;7.43;4.85;;;0.50;69.50;;;;;;5046114;28;20590;-67
2022/03/23 03:34:44;;;;;;;8.20;5.13;;;0.50;70.90;;;;;;5051602;28;20427;-67
2022/03/23 03:37:09;;;;;;;10.20;6.47;;;0.50;70.80;;;;;;5047093;28;20715;-67
2022/03/23 03:39:35;;;;;;;7.78;5.20;;;0.70;71.80;;;;;;5048387;28;20052;-67
2022/03/23 03:42:01;;;;;;;9.68;6.00;;;0.90;71.00;;;;;;5053807;28;20048;-67
2022/03/23 03:44:27;;;;;;;9.68;6.07;;;1.00;71.20;;;;;;5048060;28;20493;-67
2022/03/23 03:46:53;;;;;;;9.57;5.85;;;1.00;71.70;;;;;;5048739;28;20041;-67
2022/03/23 03:49:18;;;;;;;8.88;4.60;;;1.00;71.30;;;;;;5045001;28;20044;-67
2022/03/23 03:51:44;;;;;;;6.25;4.30;;;0.80;69.90;;;;;;5029058;28;20052;-67
2022/03/23 03:54:11;;;;;;;7.80;4.25;;;0.60;69.60;;;;;;5048785;28;20044;-67
2022/03/23 03:56:36;;;;;;;6.95;4.68;;;0.40;71.10;;;;;;5047733;28;21394;-67
2022/03/23 03:59:02;;;;;;;6.05;4.20;;;0.20;71.70;;;;;;5045000;28;20040;-67
2022/03/23 04:01:28;;;;;;;6.85;4.15;;;0.10;73.40;;;;;;5046735;28;20036;-67
2022/03/23 04:03:54;;;;;;;7.30;4.20;;;0.10;73.30;;;;;;5049635;28;20409;-67
2022/03/23 04:06:20;;;;;;;14.40;4.97;;;0.20;72.70;;;;;;5049194;28;20045;-67
2022/03/23 04:08:46;;;;;;;8.95;4.68;;;0.20;72.60;;;;;;5046690;28;20028;-67
2022/03/23 04:11:12;;;;;;;11.10;5.18;;;0.20;73.20;;;;;;5049695;28;20044;-67
2022/03/23 04:13:37;;;;;;;6.47;4.38;;;0.20;73.10;;;;;;5051265;28;20555;-67
2022/03/23 04:16:03;;;;;;;7.00;4.35;;;0.30;73.10;;;;;;5051043;28;20063;-67
2022/03/23 04:18:29;;;;;;;11.95;4.95;;;0.40;72.40;;;;;;5050603;28;20471;-67
2022/03/23 04:20:55;;;;;;;6.38;4.00;;;0.50;72.30;;;;;;5053220;28;20032;-67
2022/03/23 04:23:20;;;;;;;6.63;4.40;;;0.50;71.90;;;;;;5048839;28;20079;-67
2022/03/23 04:25:47;;;;;;;7.00;4.25;;;0.40;71.90;;;;;;5037299;28;20075;-67
2022/03/23 04:28:12;;;;;;;7.35;3.88;;;0.30;71.00;;;;;;5036706;28;20028;-67
2022/03/23 04:30:39;;;;;;;8.15;4.57;;;0.10;71.30;;;;;;5053038;28;20047;-67
2022/03/23 04:33:05;;;;;;;7.28;4.85;;;0.10;72.70;;;;;;5053898;28;20037;-67
2022/03/23 04:35:30;;;;;;;7.68;4.28;;;0.00;73.30;;;;;;5051766;28;24429;-67
2022/03/23 04:37:57;;;;;;;6.90;4.43;;;0.00;73.00;;;;;;5054099;28;20488;-67
2022/03/23 04:40:23;;;;;;;8.48;4.60;;;0.00;72.90;;;;;;5048987;28;20045;-67
2022/03/23 04:42:49;;;;;;;9.48;4.93;;;0.00;73.10;;;;;;5055004;28;20659;-67
2022/03/23 04:45:15;;;;;;;9.32;5.10;;;0.00;74.00;;;;;;5054765;28;20021;-67
2022/03/23 04:47:43;;;;;;;9.52;5.60;;;-0.10;73.70;;;;;;5048620;28;20618;-67
2022/03/23 04:50:10;;;;;;;8.27;4.97;;;0.00;73.50;;;;;;5054588;28;20076;-67
2022/03/23 04:52:38;;;;;;;8.02;5.10;;;0.10;74.50;;;;;;5048639;28;20109;-67
2022/03/23 04:55:05;;;;;;;12.80;5.20;;;0.10;73.50;;;;;;5053633;28;20025;-67
2022/03/23 04:57:31;;;;;;;10.60;5.50;;;0.20;74.00;;;;;;5050313;28;20041;-67
2022/03/23 05:00:00;;;;;;;8.35;4.60;;;0.30;73.70;;;;;;5057908;28;20047;-66
2022/03/23 05:02:26;;;;;;;6.40;4.28;;;0.30;73.50;;;;;;5052042;28;20835;-67
2022/03/23 05:04:52;;;;;;;8.57;4.43;;;0.30;72.60;;;;;;5050326;28;20045;-67
2022/03/23 05:07:18;;;;;;;10.88;5.03;;;0.30;73.50;;;;;;5052926;28;20502;-67
2022/03/23 05:09:44;;;;;;;12.60;5.78;;;0.30;74.20;;;;;;5055070;28;20417;-67
2022/03/23 05:12:10;;;;;;;8.73;4.60;;;0.30;74.10;;;;;;5052180;28;20075;-67
2022/03/23 05:14:36;;;;;;;9.93;4.72;;;0.40;73.40;;;;;;5053200;28;20108;-67
2022/03/23 05:17:02;;;;;;;7.65;4.78;;;0.40;71.70;;;;;;5027526;28;20551;-67
2022/03/23 05:19:28;;;;;;;6.43;4.65;;;0.20;71.40;;;;;;5049773;28;20029;-67
2022/03/23 05:21:54;;;;;;;7.43;4.30;;;0.20;73.30;;;;;;5050463;28;20033;-67
2022/03/23 05:24:20;;;;;;;10.68;4.75;;;0.30;74.70;;;;;;5054737;28;20032;-67
2022/03/23 05:26:45;;;;;;;9.15;5.22;;;0.40;74.70;;;;;;5053857;28;20056;-67
2022/03/23 05:29:11;;;;;;;10.57;5.20;;;0.50;74.80;;;;;;5052419;28;20033;-67
2022/03/23 05:31:37;;;;;;;12.77;5.07;;;0.60;74.30;;;;;;5049922;28;20382;-67
2022/03/23 05:34:04;;;;;;;11.70;6.55;;;0.70;75.00;;;;;;5040397;28;20124;-67
2022/03/23 05:36:30;;;;;;;11.68;5.65;;;0.90;73.90;;;;;;5048840;28;20135;-67
2022/03/23 05:38:57;;;;;;;8.88;4.95;;;1.10;73.00;;;;;;5050211;28;20033;-67
2022/03/23 05:41:23;;;;;;;7.60;4.45;;;1.20;72.60;;;;;;5054357;28;20127;-67
2022/03/23 05:43:49;;;;;;;10.30;4.72;;;1.40;73.50;;;;;;5052039;28;20067;-67
2022/03/23 05:46:15;;;;;;;8.45;5.80;;;1.50;73.20;;;;;;5047877;28;20032;-67
2022/03/23 05:48:40;;;;;;;15.13;6.35;;;1.70;73.30;;;;;;5048772;28;20041;-67
2022/03/23 05:51:07;;;;;;;10.18;5.72;;;2.00;73.00;;;;;;5052960;28;20456;-67
2022/03/23 05:53:33;;;;;;;12.20;6.18;;;2.20;71.60;;;;;;5054666;28;20396;-67
2022/03/23 05:55:58;;;;;;;10.82;6.72;;;2.20;71.10;;;;;;5056554;28;20032;-67
2022/03/23 05:58:24;;;;;;;20.90;9.32;;;2.20;71.10;;;;;;5054063;28;20041;-66
2022/03/23 06:00:50;;;;;;;23.58;9.43;;;2.50;73.70;;;;;;5051850;28;20056;-66
2022/03/23 06:03:15;;;;;;;19.00;11.45;;;2.90;72.70;;;;;;5055417;28;20055;-66
2022/03/23 06:05:41;;;;;;;21.08;11.65;;;3.30;72.30;;;;;;5051293;28;20398;-66
2022/03/23 06:08:07;;;;;;;29.13;15.90;;;3.70;71.90;;;;;;5050282;28;20410;-67
2022/03/23 06:10:33;;;;;;;26.10;14.52;;;4.00;69.30;;;;;;5037186;28;20048;-66
2022/03/23 06:12:59;;;;;;;25.92;15.68;;;4.00;69.50;;;;;;5051211;28;20040;-66
2022/03/23 06:15:25;;;;;;;33.05;17.17;;;3.90;69.90;;;;;;5039028;28;20036;-66
2022/03/23 06:17:50;;;;;;;28.27;16.77;;;3.90;69.90;;;;;;5055571;28;20669;-67
2022/03/23 06:20:16;;;;;;;33.03;19.00;;;4.10;69.50;;;;;;5053098;28;20040;-67
2022/03/23 06:22:42;;;;;;;37.10;20.67;;;4.50;68.30;;;;;;5055712;28;20044;-67
2022/03/23 06:25:08;;;;;;;110.30;51.33;;;4.70;67.90;;;;;;5052649;28;20040;-67
2022/03/23 06:27:34;;;;;;;85.72;45.03;;;5.00;67.50;;;;;;5055451;28;20048;-67
2022/03/23 06:30:01;;;;;;;113.43;55.33;;;5.20;66.90;;;;;;5057934;28;20099;-67
2022/03/23 06:32:26;;;;;;;103.63;51.45;;;5.50;67.00;;;;;;5054195;28;20142;-67
2022/03/23 06:34:52;;;;;;;107.13;52.67;;;5.80;68.00;;;;;;5037980;28;20036;-67
2022/03/23 06:37:18;;;;;;;120.35;58.72;;;6.00;66.80;;;;;;5051500;28;20060;-67
2022/03/23 06:39:44;;;;;;;120.57;56.20;;;6.20;67.20;;;;;;5053160;28;20543;-67
2022/03/23 06:42:10;;;;;;;103.38;53.22;;;6.30;66.40;;;;;;5054750;28;20033;-67
2022/03/23 06:44:38;;;;;;;126.97;65.55;;;6.50;66.50;;;;;;5055547;28;20040;-67
2022/03/23 06:47:04;;;;;;;96.20;54.80;;;6.70;64.90;;;;;;5055815;28;20080;-67
2022/03/23 06:49:29;;;;;;;83.50;46.33;;;6.90;64.00;;;;;;5052712;28;20436;-67
2022/03/23 06:51:56;;;;;;;76.15;42.67;;;7.20;63.80;;;;;;5052573;28;20057;-67
2022/03/23 06:54:22;;;;;;;65.57;36.13;;;7.50;63.00;;;;;;5055222;28;20074;-67
2022/03/23 06:56:51;;;;;;;64.55;36.50;;;7.80;62.70;;;;;;5055372;28;20468;-67
2022/03/23 06:59:18;;;;;;;77.38;40.55;;;8.10;61.30;;;;;;5054883;28;20036;-66
2022/03/23 07:01:44;;;;;;;78.18;41.13;;;8.40;61.40;;;;;;5054778;28;20033;-67
2022/03/23 07:04:10;;;;;;;70.55;37.20;;;8.60;61.00;;;;;;5056328;28;20044;-67
2022/03/23 07:06:36;;;;;;;62.90;34.03;;;8.80;60.30;;;;;;5038381;28;20067;-67
2022/03/23 07:11:45;;;;;;;20.73;12.77;;;9.40;58.30;;;;;;5056188;28;20573;-67
2022/03/23 07:14:11;;;;;;;12.38;7.10;;;9.70;56.90;;;;;;5056616;28;20053;-66
2022/03/23 07:16:37;;;;;;;12.95;6.20;;;10.00;55.10;;;;;;5052548;28;20131;-67
2022/03/23 07:19:04;;;;;;;7.93;5.10;;;10.30;53.80;;;;;;5056480;28;20033;-67
2022/03/23 07:21:30;;;;;;;9.38;4.55;;;10.60;52.40;;;;;;5056894;28;20537;-67
2022/03/23 07:23:56;;;;;;;9.70;5.45;;;10.90;48.40;;;;;;5058490;28;20052;-67
2022/03/23 07:26:22;;;;;;;7.25;4.75;;;11.20;46.90;;;;;;5054874;28;20508;-67
2022/03/23 07:28:48;;;;;;;12.35;5.85;;;11.40;46.80;;;;;;5054383;28;20041;-66
2022/03/23 07:31:14;;;;;;;10.23;5.28;;;11.60;46.90;;;;;;5058522;28;20849;-67
2022/03/23 07:33:40;;;;;;;7.30;5.30;;;11.80;45.80;;;;;;5055129;28;20469;-67
2022/03/23 07:36:06;;;;;;;7.43;5.20;;;12.00;44.60;;;;;;5054244;28;20101;-67
2022/03/23 07:38:31;;;;;;;9.40;4.90;;;12.20;44.10;;;;;;5055961;28;20044;-67
2022/03/23 07:40:57;;;;;;;7.82;4.97;;;12.30;45.00;;;;;;5054895;28;20073;-67
2022/03/23 07:43:22;;;;;;;6.47;4.68;;;12.50;43.20;;;;;;5054427;28;20024;-67
2022/03/23 07:45:48;;;;;;;10.82;5.00;;;12.70;43.50;;;;;;5056495;28;20110;-67
2022/03/23 07:48:16;;;;;;;9.27;5.00;;;12.70;43.20;;;;;;5048975;28;20061;-67
2022/03/23 07:50:42;;;;;;;7.65;5.50;;;12.90;42.30;;;;;;5053328;28;20492;-67
2022/03/23 07:53:07;;;;;;;7.63;5.22;;;13.00;42.40;;;;;;5052235;28;20119;-67
2022/03/23 07:55:33;;;;;;;5.45;4.65;;;13.10;42.00;;;;;;5055175;28;20833;-67
2022/03/23 07:57:59;;;;;;;7.72;4.35;;;13.20;42.20;;;;;;5052179;28;20082;-67
2022/03/23 08:00:25;;;;;;;8.68;5.65;;;13.40;40.70;;;;;;5053975;28;20037;-68
2022/03/23 08:02:50;;;;;;;8.07;4.90;;;13.40;40.00;;;;;;5049089;28;21792;-67
2022/03/23 08:05:16;;;;;;;8.88;5.22;;;13.50;41.20;;;;;;5046419;28;20033;-67
2022/03/23 08:07:42;;;;;;;9.90;5.63;;;13.60;40.60;;;;;;5052967;28;20131;-67
2022/03/23 08:10:08;;;;;;;6.07;4.82;;;13.80;39.50;;;;;;5045659;28;20045;-67
2022/03/23 08:12:34;;;;;;;9.10;5.53;;;13.80;38.90;;;;;;5047592;28;20623;-67
2022/03/23 08:15:00;;;;;;;7.00;5.35;;;13.80;39.90;;;;;;5051001;28;20041;-67
2022/03/23 08:17:26;;;;;;;8.73;5.30;;;13.90;40.00;;;;;;5050610;28;20032;-67
2022/03/23 08:22:37;;;;;;;11.98;5.82;;;14.20;38.40;;;;;;5046500;28;21266;-67
2022/03/23 08:25:03;;;;;;;10.55;5.47;;;14.40;38.70;;;;;;5051491;28;20045;-67
2022/03/23 08:27:29;;;;;;;8.63;6.32;;;14.50;38.50;;;;;;5057807;28;20043;-67
2022/03/23 08:29:55;;;;;;;8.65;5.90;;;14.60;38.20;;;;;;5053797;28;20032;-67
2022/03/23 08:32:26;;;;;;;10.02;6.30;;;14.80;38.30;;;;;;5053673;28;20515;-67
2022/03/23 08:34:51;;;;;;;9.75;5.80;;;14.90;38.40;;;;;;5059036;28;20036;-70
2022/03/23 08:37:17;;;;;;;9.60;5.68;;;15.00;38.10;;;;;;5053346;28;20489;-72
2022/03/23 08:39:43;;;;;;;12.50;6.22;;;15.00;38.10;;;;;;5052640;28;20086;-73
2022/03/23 08:42:08;;;;;;;12.43;6.13;;;15.10;39.10;;;;;;5054099;28;20409;-73
2022/03/23 08:44:34;;;;;;;10.18;5.93;;;15.30;38.20;;;;;;5054790;28;20033;-73
2022/03/23 08:47:00;;;;;;;9.40;6.00;;;15.30;38.40;;;;;;5052207;28;20058;-73
2022/03/23 08:49:26;;;;;;;10.80;6.07;;;15.40;36.90;;;;;;5052061;28;20045;-73
2022/03/23 08:51:51;;;;;;;9.98;6.45;;;15.50;37.60;;;;;;5050446;28;20061;-73
2022/03/23 08:54:17;;;;;;;10.18;6.28;;;15.60;38.10;;;;;;5054810;28;20091;-72
2022/03/23 08:56:43;;;;;;;10.95;6.25;;;15.70;38.30;;;;;;5055309;28;20064;-72
2022/03/23 08:59:09;;;;;;;10.70;5.90;;;15.80;36.90;;;;;;5050737;28;20037;-73
2022/03/23 09:01:34;;;;;;;8.63;5.53;;;15.90;36.80;;;;;;5054939;28;20050;-72
2022/03/23 09:04:04;;;;;;;11.07;5.78;;;16.00;37.20;;;;;;5044360;28;20040;-71
2022/03/23 09:06:29;;;;;;;10.60;5.30;;;16.00;36.80;;;;;;5054638;28;20143;-78
2022/03/23 09:08:55;;;;;;;7.80;5.40;;;16.10;36.60;;;;;;5053273;28;20032;-76
2022/03/23 09:11:22;;;;;;;10.88;6.05;;;16.20;36.80;;;;;;5046078;28;20056;-68
2022/03/23 09:13:48;;;;;;;11.07;6.30;;;16.30;35.90;;;;;;5049149;28;20033;-69
2022/03/23 09:16:15;;;;;;;10.32;5.72;;;16.40;35.90;;;;;;5040527;28;20159;-70
2022/03/23 09:18:41;;;;;;;10.48;6.40;;;16.40;36.50;;;;;;5051184;28;20131;-69
2022/03/23 09:21:07;;;;;;;9.55;6.15;;;16.60;36.10;;;;;;5056369;28;20036;-69
2022/03/23 09:23:34;;;;;;;14.63;6.30;;;16.80;35.00;;;;;;5055099;28;20045;-70
2022/03/23 09:26:01;;;;;;;9.75;5.95;;;16.70;35.30;;;;;;5050985;28;20052;-69
2022/03/23 09:28:26;;;;;;;8.10;5.82;;;16.70;35.10;;;;;;5057563;28;20045;-71
2022/03/23 09:30:52;;;;;;;10.38;6.13;;;16.70;35.20;;;;;;5039064;28;20037;-69
2022/03/23 09:33:18;;;;;;;8.95;6.35;;;16.80;35.30;;;;;;5058226;28;20035;-69
2022/03/23 09:35:43;;;;;;;8.90;5.50;;;17.00;34.70;;;;;;5054347;28;20484;-69
2022/03/23 09:38:11;;;;;;;7.50;4.95;;;17.00;35.20;;;;;;5057414;28;20032;-70
2022/03/23 09:40:38;;;;;;;12.18;5.78;;;17.10;33.20;;;;;;5051202;28;20067;-70
2022/03/23 09:43:11;;;;;;;7.55;5.55;;;17.30;33.90;;;;;;5050440;28;20040;-70
2022/03/23 09:48:10;;;;;;;9.02;5.65;;;17.40;33.80;;;;;;5054405;28;20048;-70
2022/03/23 09:50:39;;;;;;;10.13;6.35;;;17.60;33.90;;;;;;5055575;28;20032;-70
2022/03/23 09:53:05;;;;;;;8.27;5.85;;;17.80;33.70;;;;;;5057770;28;20485;-70
2022/03/23 09:55:31;;;;;;;8.18;5.72;;;17.90;32.50;;;;;;5058604;28;20118;-69
2022/03/23 09:57:59;;;;;;;11.85;5.80;;;17.90;32.80;;;;;;5058170;28;20040;-70
2022/03/23 10:00:29;;;;;;;7.57;5.60;;;18.10;31.70;;;;;;5053538;28;20099;-70
2022/03/23 10:02:57;;;;;;;11.15;5.47;;;18.10;30.00;;;;;;5038687;28;20033;-69
2022/03/23 10:06:17;;;;;;;12.10;6.00;;;18.00;31.10;;;;;;5053917;28;20149;-70
2022/03/23 10:09:01;;;;;;;8.45;5.90;;;17.90;32.30;;;;;;4999054;28;20053;-70
2022/03/23 10:12:04;;;;;;;9.52;5.72;;;17.90;32.90;;;;;;5051774;28;20433;-70
2022/03/23 10:14:49;;;;;;;9.98;5.72;;;18.00;31.90;;;;;;5049602;28;20051;-69
2022/03/23 10:17:45;;;;;;;8.70;5.75;;;18.00;31.20;;;;;;5054382;28;20033;-70
2022/03/23 10:20:14;;;;;;;8.80;5.97;;;18.10;31.40;;;;;;5055313;28;20033;-70
2022/03/23 10:22:48;;;;;;;8.73;5.70;;;18.20;30.90;;;;;;5057154;28;20102;-70
2022/03/23 10:25:14;;;;;;;8.23;5.43;;;18.20;31.10;;;;;;5056076;28;20086;-69
2022/03/23 10:27:40;;;;;;;9.70;6.20;;;18.20;30.70;;;;;;5048368;28;20080;-68
2022/03/23 10:30:06;;;;;;;10.68;5.32;;;18.20;31.10;;;;;;5052701;28;20127;-69
2022/03/23 10:32:42;;;;;;;8.35;5.47;;;18.30;30.00;;;;;;5032697;28;20123;-69
2022/03/23 10:35:16;;;;;;;7.20;5.18;;;18.40;30.20;;;;;;5053334;28;20453;-69
2022/03/23 10:37:46;;;;;;;9.68;5.07;;;18.30;30.40;;;;;;5053787;28;20040;-68
2022/03/23 10:40:18;;;;;;;7.15;5.00;;;18.40;29.40;;;;;;5058067;28;20115;-69
2022/03/23 10:42:44;;;;;;;;;;;18.50;29.40;;;;;;5055833;28;20024;-69
2022/03/23 10:45:17;;;;;;;7.45;5.15;;;18.40;29.30;;;;;;5053314;28;19916;-69
2022/03/23 10:47:44;;;;;;;7.80;4.75;;;18.40;29.70;;;;;;5054919;28;20135;-69
2022/03/23 10:50:15;;;;;;;6.97;4.38;;;18.50;29.60;;;;;;5050815;28;20029;-69
2022/03/23 10:52:58;;;;;;;6.97;5.00;;;18.60;29.50;;;;;;5049458;28;20395;-69
2022/03/23 10:55:26;;;;;;;8.40;4.88;;;18.70;29.50;;;;;;5054930;28;20111;-66
2022/03/23 10:57:52;;;;;;;6.50;4.13;;;18.80;28.30;;;;;;5051032;28;20087;-66
2022/03/23 11:00:27;;;;;;;7.22;4.60;;;18.80;29.00;;;;;;5053541;28;20123;-65
2022/03/23 11:02:52;;;;;;;8.10;4.50;;;18.90;29.00;;;;;;5055606;28;20056;-66
2022/03/23 11:05:49;;;;;;;5.78;4.35;;;19.00;28.20;;;;;;5059998;28;20087;-65
2022/03/23 11:08:20;;;;;;;7.70;4.50;;;19.20;28.80;;;;;;5051190;28;20064;-65
2022/03/23 11:16:27;;;;;;;7.07;4.35;;;19.30;29.10;;;;;;5047942;28;20059;-66
2022/03/23 11:19:18;;;;;;;6.05;4.53;;;19.30;28.40;;;;;;5055749;28;20039;-66
2022/03/23 11:22:03;;;;;;;6.20;4.55;;;19.50;28.30;;;;;;5045204;28;20094;-67
2022/03/23 11:24:40;;;;;;;5.28;4.78;;;19.40;27.60;;;;;;5058753;28;20037;-65
2022/03/23 11:27:17;;;;;;;9.15;5.10;;;19.40;28.50;;;;;;5058953;28;20048;-66
2022/03/23 11:29:44;;;;;;;7.43;4.85;;;19.50;27.60;;;;;;5061668;28;20040;-66
2022/03/23 11:32:28;;;;;;;6.00;4.40;;;19.50;27.80;;;;;;5058770;28;20549;-67
2022/03/23 11:34:56;;;;;;;6.82;4.95;;;19.60;27.60;;;;;;5056658;28;20071;-67
2022/03/23 11:37:23;;;;;;;9.25;5.28;;;19.70;27.00;;;;;;5052348;28;20033;-66
2022/03/23 11:39:51;;;;;;;6.75;4.93;;;19.70;27.00;;;;;;5056192;28;20025;-67
2022/03/23 11:42:19;;;;;;;6.90;4.53;;;19.60;27.40;;;;;;5054479;28;20401;-66
2022/03/23 11:44:46;;;;;;;8.02;4.82;;;19.70;28.10;;;;;;5056561;28;20643;-66
2022/03/23 11:47:31;;;;;;;6.10;4.88;;;19.80;27.20;;;;;;5061906;28;20049;-67
2022/03/23 11:50:19;;;;;;;6.88;5.03;;;19.90;26.50;;;;;;5058749;28;20226;-66
2022/03/23 11:53:08;;;;;;;7.95;4.70;;;19.80;27.10;;;;;;5056029;28;20056;-66
2022/03/23 11:55:47;;;;;;;7.20;4.85;;;19.80;26.40;;;;;;5041920;28;20058;-66
2022/03/23 11:58:21;;;;;;;10.43;4.90;;;19.90;26.70;;;;;;5056771;28;20020;-67
2022/03/23 12:01:11;;;;;;;6.15;4.25;;;20.00;26.30;;;;;;5055106;28;20599;-67
2022/03/23 12:03:43;;;;;;;6.45;4.65;;;19.90;26.40;;;;;;5047221;28;20500;-67
2022/03/23 12:06:17;;;;;;;10.52;4.70;;;20.00;27.20;;;;;;5059840;28;20049;-67
2022/03/23 12:08:50;;;;;;;6.28;4.35;;;20.10;27.80;;;;;;5056018;28;20036;-67
2022/03/23 12:11:45;;;;;;;6.82;4.25;;;20.20;26.90;;;;;;5059682;28;20039;-67
2022/03/23 12:14:40;;;;;;;21.00;9.57;;;20.30;26.60;;;;;;5038968;28;20037;-67
2022/03/23 12:17:11;;;;;;;8.27;5.65;;;20.40;27.30;;;;;;5043489;28;20032;-67
2022/03/23 12:19:58;;;;;;;9.43;4.73;;;20.50;25.80;;;;;;5058514;28;20382;-67
2022/03/23 12:22:32;;;;;;;12.23;10.82;;;20.40;25.40;;;;;;5042673;28;20827;-67
2022/03/23 12:25:20;;;;;;;10.32;6.70;;;20.20;25.90;;;;;;5058116;28;20398;-67
2022/03/23 12:27:45;;;;;;;6.25;4.40;;;20.30;26.70;;;;;;5054650;28;20045;-67
2022/03/23 12:30:26;;;;;;;8.43;4.45;;;20.40;25.80;;;;;;5052661;28;20642;-67
2022/03/23 12:33:00;;;;;;;5.53;4.20;;;20.20;25.30;;;;;;5053507;28;20423;-68
2022/03/23 12:35:34;;;;;;;6.70;4.70;;;20.30;26.10;;;;;;5053141;28;20517;-68
2022/03/23 12:38:01;;;;;;;11.25;4.28;;;20.40;26.10;;;;;;5053385;28;20420;-67
2022/03/23 12:40:41;;;;;;;6.32;4.43;;;20.70;26.30;;;;;;5054698;28;20354;-67
2022/03/23 12:43:08;;;;;;;10.80;4.65;;;20.80;26.40;;;;;;5055241;28;20444;-67
2022/03/23 12:45:37;;;;;;;5.25;4.20;;;20.90;26.60;;;;;;5037079;28;20092;-67
2022/03/23 12:59:17;;;;;;;6.60;4.18;;;21.10;24.90;;;;;;5042985;28;20054;-68
2022/03/23 13:01:45;;;;;;;4.40;3.88;;;21.00;24.90;;;;;;5054101;28;20029;-67
2022/03/23 13:04:31;;;;;;;5.05;3.88;;;21.00;24.50;;;;;;5044892;28;20532;-68
2022/03/23 13:06:56;;;;;;;7.47;4.10;;;21.00;24.60;;;;;;5048461;28;20653;-67
2022/03/23 13:09:25;;;;;;;6.85;4.57;;;21.00;24.70;;;;;;5051502;28;20045;-68
2022/03/23 13:11:58;;;;;;;6.78;4.35;;;21.10;24.60;;;;;;5048163;28;20037;-68
2022/03/23 13:14:25;;;;;;;7.25;4.60;;;21.20;25.10;;;;;;5053260;28;20481;-68
2022/03/23 13:16:56;;;;;;;5.72;3.97;;;21.30;24.60;;;;;;5046237;28;20157;-68
2022/03/23 13:19:22;;;;;;;8.20;4.53;;;21.40;24.80;;;;;;5056506;28;20033;-68
2022/03/23 13:21:48;;;;;;;9.25;4.03;;;21.30;24.20;;;;;;5051136;28;20639;-68
2022/03/23 13:24:14;;;;;;;6.55;4.65;;;21.30;24.20;;;;;;5035475;28;20079;-67
2022/03/23 13:26:46;;;;;;;5.82;3.78;;;21.30;23.70;;;;;;5050736;28;20514;-68
2022/03/23 13:29:12;;;;;;;6.28;4.40;;;21.20;24.30;;;;;;5051061;28;20029;-68